Hovedside
METAR-TAF:

METAR-TAF

Lufthavner :

Sveg lufthavn

Sveg, Sverige

breddegrad: 62-02-52N, lengdegrad: 014-25-22E, høyde over havet: 359 m

Gjeldene værobservasjon

Denne rapporten ble laget for 18 minutter siden, klokken 17:20 UTC
Vind 10 kt fra Nordøst, skiftende mellom Nord og Øst-nordøst
Temperatur 20°C
Luftfuktighet 35%
Trykk 1029 hPa
Sikt 10 km eller mer

METAR: ESND 261720Z AUTO 04010KT 360V060 9999 NCD 20/04 Q1029

Tid: 19:38 (17:38 UTC)


TAF: fraværende

Værobservasjoner og værvarsel for over 4000 flyplasser (METAR- og TAF-rapporter).

Tilgjengelige stasjoner er representert av de røde og gule prikkene på kartet.

Hold musepekeren over prikken for å se navnet på stasjonen.

Klikk så for å se værobservasjoner og -varsler.

For å forandre kartet kan du klikke på den grønne knappen med svart kryss for å zoome inn, på den grønne knappen med strek for å zoome ut, eller på de grønne pilene for å se tilstøtende kart.


METAR-TAF: